Vectren Corp (VVC) Latest Bloomsberg Price


Mffais Ranking #2311 Overall / #28 Industry
Industry: Utility Networks

Number of Companies: 255 (Ranking #620 Overall/#12 Industry)
Inflow: $ 43,415 (K) (Ranking #1381 Overall/#16 Industry)
Outflow: $ -94,969 (K)
Mffais Flow: $ -51,554 (K) (Ranking #2311 Overall/#28 Industry)


Receive a FREE weekly executive review of stocks moving into the top 10, taking the top industy spot or moving up within their industry. Sent directly to your Inbox every Saturday. Sign up today and get last week's review immediately sent to you.

We value and respect your privacy. Please read our Terms and Conditions which states our firm commitment to your privacy. Your email address will not be shared with a third party, nor will it be sold or used for purposes other than subscription for the weekly review.

Owner CPOR Shares Action Qty Chg Invested (K) Total Current Value (K)
Thrivent Financial For Lutherans 2016-09-30 392,490 Added More 218,560 $ 11,286 $ 20,268
Bessemer Group Inc 2016-09-30 118,078 Added More 83,037 $ 4,288 $ 6,097
Edge Asset Management Inc 2016-09-30 536,099 Added More 67,033 $ 3,461 $ 27,684
Cadence Bank Na 2016-09-30 70,824 Added More 41,836 $ 2,160 $ 3,657
Proshare Advisors Llc 2016-09-30 91,355 Added More 38,716 $ 1,999 $ 4,717
Duff Phelps Investment Management Co 2016-09-30 1,591,040 Added More 36,225 $ 1,870 $ 82,161
Raymond James Associates 2016-09-30 553,555 Added More 35,052 $ 1,810 $ 28,585
Hennessy Advisors Inc 2016-09-30 357,228 Added More 33,500 $ 1,729 $ 18,447
Parametric Portfolio Associates Llc 2016-09-30 200,700 Added More 31,813 $ 1,642 $ 10,364
Martingale Asset Management L P 2016-09-30 420,341 Added More 28,032 $ 1,447 $ 21,706
Opus Investment Management Inc 2016-09-30 96,600 Added More 26,000 $ 1,342 $ 4,988
Bluecrest Capital Management Ltd 2016-09-30 24,661 New Holding 24,661 $ 1,273 $ 1,273
Dimensional Fund Advisors Lp 2016-09-30 377,914 Added More 20,130 $ 1,039 $ 19,515
Comerica Bank 2016-09-30 80,012 Added More 19,820 $ 1,023 $ 4,131
First Quadrant L P Ca 2016-09-30 282,914 Added More 18,617 $ 961 $ 14,609
Horizon Investment Services Llc 2016-09-30 14,361 New Holding 14,361 $ 741 $ 741
Piedmont Investment Advisors Llc 2016-09-30 10,537 Added More 10,497 $ 542 $ 544
United Capital Financial Advisers Llc 2016-09-30 8,830 New Holding 8,830 $ 455 $ 455
Verition Fund Management Llc 2016-09-30 10,293 Added More 6,474 $ 334 $ 531
Rhumbline Advisers 2016-09-30 141,340 Added More 5,503 $ 284 $ 7,298
Aperio Group Llc 2016-09-30 28,952 Added More 5,488 $ 283 $ 1,495
Blackrock Japan Co Ltd 2016-09-30 5,033 New Holding 5,033 $ 259 $ 259
Spot Trading L L C 2016-09-30 5,000 New Holding 5,000 $ 258 $ 258
Squarepoint Ops Llc 2016-09-30 4,988 New Holding 4,988 $ 257 $ 257
Meeder Asset Management Inc 2016-09-30 4,514 New Holding 4,514 $ 233 $ 233
Cetera Advisor Networks Llc 2016-09-30 4,488 New Holding 4,488 $ 231 $ 231
Zebra Capital Management Llc 2016-09-30 36,683 Added More 4,195 $ 216 $ 1,894
Ftb Advisors Inc 2016-09-30 31,358 Added More 3,774 $ 194 $ 1,619
Clinton Group Inc 2016-09-30 10,121 Added More 2,925 $ 151 $ 522
Keybank National Association Oh 2016-09-30 11,834 Added More 2,867 $ 148 $ 611
Legal General Group Plc 2016-09-30 90,618 Added More 2,194 $ 113 $ 4,679
Ramsey Quantitative Systems 2016-09-30 13,268 Added More 2,072 $ 106 $ 685
Blackrock Investment Management Llc 2016-09-30 246,858 Added More 2,070 $ 106 $ 12,747
Pacad Investment Ltd 2016-09-30 1,900 New Holding 1,900 $ 98 $ 98
Creative Planning 2016-09-30 7,473 Added More 1,750 $ 90 $ 385
California State Teachers Retirement System 2016-09-30 182,209 Added More 1,600 $ 82 $ 9,409
Pnc Financial Services Group Inc 2016-09-30 150,237 Added More 1,573 $ 81 $ 7,758
Tower Research Capital Llc Trc 2016-09-30 1,427 New Holding 1,427 $ 73 $ 73
World Asset Management Inc 2016-09-30 5,979 Added More 1,329 $ 68 $ 308
Td Asset Management Inc 2016-09-30 5,217 Added More 1,289 $ 66 $ 269
Benjamin F Edwards Company Inc 2016-09-30 20,549 Added More 1,047 $ 54 $ 1,061
Mutual Of America Capital Management Llc 2016-09-30 62,560 Added More 993 $ 51 $ 3,230
Lynch Associates In 2016-09-30 75,016 Added More 978 $ 50 $ 3,873
Cutler Group Lp 2016-09-30 2,260 Added More 868 $ 44 $ 116
Pacer Advisors Inc 2016-09-30 7,765 Added More 804 $ 41 $ 400
Prudential Plc 2016-09-30 6,500 Added More 700 $ 36 $ 335
Ifp Advisors Inc 2016-09-30 4,164 Added More 645 $ 33 $ 215
Stifel Financial Corp 2016-09-30 52,628 Added More 641 $ 33 $ 2,717
Liberty Mutual Group Asset Management Inc 2016-09-30 36,511 Added More 579 $ 29 $ 1,885
Mason Street Advisors Llc 2016-09-30 38,327 Added More 565 $ 29 $ 1,979
Peddock Capital Advisors Llc 2016-09-30 546 New Holding 546 $ 28 $ 28
Ladenburg Thalmann Financial Services Inc 2016-09-30 4,288 Added More 411 $ 21 $ 221
Jane Street Group Llc 2016-09-30 5,379 Added More 386 $ 19 $ 277
Raymond James Financial Services Advisors Inc 2016-09-30 9,121 Added More 376 $ 19 $ 471
Ls Investment Advisors Llc 2016-09-30 5,258 Added More 284 $ 14 $ 271
Van Eck Associates Corp 2016-09-30 486 Added More 234 $ 12 $ 25
Sei Investments Co 2016-09-30 1,552 Added More 234 $ 12 $ 80
Hendley Co Inc 2016-09-30 17,800 Added More 200 $ 10 $ 919
Howe Rusling Inc 2016-09-30 185 New Holding 185 $ 9 $ 9
Archford Capital Strategies Llc 2016-09-30 13,833 Added More 126 $ 6 $ 714
Advisors Asset Management Inc 2016-09-30 39,738 Added More 118 $ 6 $ 2,052
New York State Teachers Retirement System 2016-09-30 184,514 Added More 100 $ 5 $ 9,528
State Treasurer State Of Michigan 2016-09-30 256,060 Added More 100 $ 5 $ 13,222
Ifc Holdings Incorporated Fl 2016-09-30 14,063 Added More 97 $ 5 $ 726
Hl Financial Services Llc 2016-09-30 25,332 Added More 91 $ 4 $ 1,308
First Manhattan Co 2016-09-30 3,419 Added More 90 $ 4 $ 176
M T Bank Corp 2016-09-30 5,926 Added More 51 $ 2 $ 306
Weaver C Barksdale Associates Inc 2016-09-30 222 Added More 22 $ 1 $ 11
Capital One National Association 2016-09-30 7,121 Added More 21 $ 1 $ 367
Hillsdale Investment Management Inc 2016-09-30 65 Added More 20 $ 1 $ 3
Tarbox Group Inc 2016-09-30 1,253 Added More 17 $ 0 $ 64
Washington Trust Bank 2016-09-30 16 New Holding 16 $ 0 $ 0
Cwm Llc 2016-09-30 1,279 Added More 11 $ 0 $ 66
Msi Financial Services Inc 2016-09-30 1,382 Added More 6 $ 0 $ 71
Moneta Group Investment Advisors Llc 2016-09-30 3,999 No Change 0 $ 0 $ 206
Central Trust Co 2016-09-30 100 No Change 0 $ 0 $ 5
Old Republic International Corp 2016-09-30 179,044 No Change 0 $ 0 $ 9,245
United Fire Group Inc 2016-09-30 26,658 No Change 0 $ 0 $ 1,376
Teachers Retirement System Of The State Of Kentucky 2016-09-30 21,700 No Change 0 $ 0 $ 1,120
Foresters Investment Management Company Inc 2016-09-30 49,500 No Change 0 $ 0 $ 2,556
Klingenstein Fields Co Llc 2016-09-30 4,795 No Change 0 $ 0 $ 247
Delta Asset Management Llc Tn 2016-09-30 600 No Change 0 $ 0 $ 30
Trustmark National Bank Trust Department 2016-09-30 7,994 No Change 0 $ 0 $ 412
Wesbanco Bank Inc 2016-09-30 4,760 No Change 0 $ 0 $ 245
Grace White Inc Ny 2016-09-30 17,752 No Change 0 $ 0 $ 916
Chemical Bank 2016-09-30 5,570 No Change 0 $ 0 $ 287
Leavell Investment Management Inc 2016-09-30 12,918 No Change 0 $ 0 $ 667
Dubuque Bank Trust Co 2016-09-30 234 No Change 0 $ 0 $ 12
Nisa Investment Advisors Llc 2016-09-30 58,320 No Change 0 $ 0 $ 3,011
Tompkins Financial Corp 2016-09-30 1,170 No Change 0 $ 0 $ 60
Fort Washington Investment Advisors Inc Oh 2016-09-30 5,700 No Change 0 $ 0 $ 294
Mufg Americas Holdings Corp 2016-09-30 13,210 No Change 0 $ 0 $ 682
Ibm Retirement Fund 2016-09-30 8,385 No Change 0 $ 0 $ 433
Duncker Streett Co Inc 2016-09-30 235 No Change 0 $ 0 $ 12
Advantus Capital Management Inc 2016-09-30 10,028 No Change 0 $ 0 $ 517
Ingalls Snyder Llc 2016-09-30 14,600 No Change 0 $ 0 $ 753
Omers Administration Corp 2016-09-30 4,500 No Change 0 $ 0 $ 232
M R Capital Management Inc 2016-09-30 370 No Change 0 $ 0 $ 19
Eaton Vance Management 2016-09-30 7,920 No Change 0 $ 0 $ 408
Gabelli Funds Llc 2016-09-30 547,000 No Change 0 $ 0 $ 28,247
Fuller Thaler Asset Management Inc 2016-09-30 395 No Change 0 $ 0 $ 20
S Co Inc 2016-09-30 7,040 No Change 0 $ 0 $ 363
First National Bank Sioux Falls 2016-09-30 5,478 No Change 0 $ 0 $ 282
North Point Portfolio Managers Corp Oh 2016-09-30 5,550 No Change 0 $ 0 $ 286
Trust Co Of Vermont 2016-09-30 720 No Change 0 $ 0 $ 37
Northwestern Mutual Wealth Management Co 2016-09-30 126 No Change 0 $ 0 $ 6
Geneva Advisors Llc 2016-09-30 5,816 No Change 0 $ 0 $ 300
Motco 2016-09-30 220 No Change 0 $ 0 $ 11
Assetmark Inc 2016-09-30 65 No Change 0 $ 0 $ 3
Peoples United Financial Inc 2016-09-30 556 No Change 0 $ 0 $ 28
Penobscot Investment Management Company Inc 2016-09-30 4,264 No Change 0 $ 0 $ 220
Texan Capital Management 2016-09-30 57,298 No Change 0 $ 0 $ 2,958
Sandy Spring Bank 2016-09-30 4,831 No Change 0 $ 0 $ 249
State Of New Jersey Common Pension Fund D 2016-09-30 20,000 No Change 0 $ 0 $ 1,032
Qs Investors Llc 2016-09-30 30 No Change 0 $ 0 $ 1
Wellington Shields Co Llc 2016-09-30 4,798 No Change 0 $ 0 $ 247
Rocky Mountain Advisers Llc 2016-09-30 190 No Change 0 $ 0 $ 9
Nuveen Asset Management Llc 2016-09-30 33,604 No Change 0 $ 0 $ 1,735
Cornerstone Advisors Inc 2016-09-30 133 No Change 0 $ 0 $ 6
Skandinaviska Enskilda Banken Ab Publ 2016-09-30 5,100 No Change 0 $ 0 $ 263
Finemark National Bank Trust 2016-09-30 2,932 No Change 0 $ 0 $ 151
South Dakota Investment Council 2016-09-30 11,000 No Change 0 $ 0 $ 568
Utah Retirement Systems 2016-09-30 15,098 No Change 0 $ 0 $ 779
Bartlett Co Llc 2016-09-30 2,399 No Change 0 $ 0 $ 123
Hanson Mcclain Inc 2016-06-30 100 No Change 0 $ 0 $ 5
Arizona State Retirement System 2016-09-30 32,357 No Change 0 $ 0 $ 1,670
Carroll Financial Associates Inc 2016-09-30 2,463 No Change 0 $ 0 $ 127
Concannon Wealth Management Llc 2016-09-30 400 No Change 0 $ 0 $ 20
Oarsman Capital Inc 2016-09-30 4,624 No Change 0 $ 0 $ 238
State Of Tennessee Treasury Department 2016-09-30 30,000 No Change 0 $ 0 $ 1,549
D Scott Neal Inc 2016-09-30 445 No Change 0 $ 0 $ 22
Parkwood Llc 2016-09-30 10,493 No Change 0 $ 0 $ 541
Lba Wealth Management Llc 2016-09-30 85 No Change 0 $ 0 $ 4
Taylor Wealth Management Partners 2016-09-30 2,000 No Change 0 $ 0 $ 103
Moors Cabot Inc 2016-09-30 4,260 No Change 0 $ 0 $ 219
Gemmer Asset Management Llc 2016-09-30 162 No Change 0 $ 0 $ 8
Gierl Augustine Investment Management Inc 2016-09-30 1,060 No Change 0 $ 0 $ 54
Trust Co 2016-09-30 379 No Change 0 $ 0 $ 19
Patten Group Inc 2016-09-30 1,000 No Change 0 $ 0 $ 51
Isthmus Partners Llc 2016-09-30 500 No Change 0 $ 0 $ 25
Integrated Wealth Management 2016-09-30 22 No Change 0 $ 0 $ 1
Zions Bancorporation 2016-09-30 1,500 No Change 0 $ 0 $ 77
Quadrant Capital Group Llc 2016-09-30 26 No Change 0 $ 0 $ 1
Proficio Capital Partners Llc 2016-09-30 374 No Change 0 $ 0 $ 19
Hutner Daniel Ellsworth 2016-06-30 7,345 No Change 0 $ 0 $ 386
Cedar Wealth Management Llc 2016-09-30 1,080 No Change 0 $ 0 $ 55
Mosaic Family Wealth Llc 2016-09-30 240 No Change 0 $ 0 $ 12
Vaughan David Investments Inc Il 2016-09-30 340,144 Sold Some -6 $ -0 $ 17,565
Baird Financial Group Inc 2016-09-30 40,151 Sold Some -12 $ -0 $ 2,073
Private Advisor Group Llc 2016-09-30 7,685 Sold Some -18 $ -0 $ 396
Northwestern Mutual Investment Management Company Llc 2016-09-30 14,265 Sold Some -30 $ -1 $ 736
Cable Hill Partners Llc 2016-09-30 0 Sold All -41 $ -2 $ 0
Advisory Services Network Llc 2016-09-30 0 Sold All -47 $ -2 $ 0
Retirement Systems Of Alabama 2016-09-30 106,746 Sold Some -69 $ -3 $ 5,512
Synovus Financial Corp 2016-09-30 750 Sold Some -100 $ -5 $ 38
Community Bank N A 2016-09-30 0 Sold All -100 $ -5 $ 0
Johnson Investment Counsel Inc 2016-09-30 6,212 Sold Some -100 $ -5 $ 320
Putnam Investments Llc 2016-09-30 71,979 Sold Some -133 $ -6 $ 3,716
Capstone Asset Management Co 2016-09-30 7,726 Sold Some -140 $ -7 $ 398
Ifrah Financial Services Inc 2016-09-30 5,636 Sold Some -144 $ -7 $ 291
Aston Asset Management Llc 2016-06-30 32,715 Sold Some -162 $ -8 $ 1,723
Texas Permanent School Fund 2016-09-30 63,104 Sold Some -211 $ -10 $ 3,258
Tdam Usa Inc 2016-09-30 40,844 Sold Some -275 $ -14 $ 2,109
Oakbrook Investments Llc 2016-09-30 4,120 Sold Some -300 $ -15 $ 212
Peapack Gladstone Financial Corp 2016-09-30 57,710 Sold Some -300 $ -15 $ 2,980
Park National Corp Oh 2016-09-30 7,946 Sold Some -300 $ -15 $ 410
American International Group Inc 2016-09-30 160,091 Sold Some -343 $ -17 $ 8,267
Us Bancorp De 2016-09-30 25,803 Sold Some -349 $ -18 $ 1,332
Tiaa Cref Trust Co Fsb Mo 2016-09-30 10,689 Sold Some -375 $ -19 $ 551
Commonwealth Equity Services Inc 2016-09-30 8,927 Sold Some -379 $ -19 $ 460
Hanson Doremus Investment Management 2016-09-30 22,813 Sold Some -405 $ -20 $ 1,178
Oshaughnessy Asset Management Llc 2016-09-30 4,264 Sold Some -424 $ -21 $ 220
Huff W R Asset Management Co Llc De 2016-09-30 44,850 Sold Some -475 $ -24 $ 2,316
James Investment Research Inc 2016-09-30 33,560 Sold Some -475 $ -24 $ 1,733
State Of Alaska Department Of Revenue 2016-09-30 7,152 Sold Some -482 $ -24 $ 369
Checchi Capital Advisers Llc 2016-09-30 0 Sold All -502 $ -25 $ 0
Panagora Asset Management Inc 2016-09-30 5,169 Sold Some -537 $ -27 $ 266
Point72 Asia Hong Kong Ltd 2016-09-30 0 Sold All -700 $ -36 $ 0
Group One Trading L P 2016-09-30 0 Sold All -708 $ -36 $ 0
Valley National Advisers Inc 2016-09-30 750 Sold Some -750 $ -38 $ 38
Capital Fund Management S A 2016-09-30 8,000 Sold Some -800 $ -41 $ 413
First Financial Corp In 2016-09-30 82,048 Sold Some -822 $ -42 $ 4,236
Bronfman E L Rothschild L P 2016-09-30 2,410 Sold Some -837 $ -43 $ 124
Commerce Bank 2016-09-30 7,836 Sold Some -900 $ -46 $ 404
First Merchants Corp 2016-09-30 79,828 Sold Some -950 $ -49 $ 4,122
Guggenheim Capital Llc 2016-09-30 78,123 Sold Some -1,075 $ -55 $ 4,034
Sii Investments Inc Wi 2016-09-30 9,122 Sold Some -1,121 $ -57 $ 471
Hsbc Holdings Plc 2016-09-30 7,381 Sold Some -1,151 $ -59 $ 381
Lebenthal Asset Management Llc 2016-09-30 21,867 Sold Some -1,269 $ -65 $ 1,129
Advisor Group Inc 2016-09-30 6,053 Sold Some -1,396 $ -72 $ 312
Amp Capital Investors Ltd 2016-09-30 7,240 Sold Some -1,523 $ -78 $ 373
Nomura Asset Management Co Ltd 2016-09-30 0 Sold All -1,580 $ -81 $ 0
Lebenthal Holdings Llc 2016-06-30 23,136 Sold Some -1,586 $ -83 $ 1,218
Kcg Holdings Inc 2016-09-30 9,678 Sold Some -1,685 $ -87 $ 499
Fifth Third Bancorp 2016-09-30 176,228 Sold Some -1,758 $ -90 $ 9,100
Simplex Trading Llc 2016-09-30 0 Sold All -1,779 $ -91 $ 0
Goelzer Investment Management Inc 2016-09-30 77,483 Sold Some -1,794 $ -92 $ 4,001
Old National Bancorp In 2016-09-30 197,757 Sold Some -1,924 $ -99 $ 10,212
Peak6 Investments L P 2016-09-30 9,175 Sold Some -1,925 $ -99 $ 473
Envestnet Asset Management Inc 2016-09-30 14,687 Sold Some -1,945 $ -100 $ 758
Chesley Taft Associates Llc 2016-09-30 23,375 Sold Some -2,350 $ -121 $ 1,207
Teacher Retirement System Of Texas 2016-09-30 8,933 Sold Some -2,642 $ -136 $ 461
Stevens Capital Management Lp 2016-09-30 4,557 Sold Some -2,656 $ -137 $ 235
Eqis Capital Management Inc 2016-09-30 4,033 Sold Some -3,545 $ -183 $ 208
Woodley Farra Manion Portfolio Management Inc 2016-09-30 54,367 Sold Some -4,105 $ -211 $ 2,807
Barings Llc 2016-09-30 0 Sold All -4,150 $ -214 $ 0
Blair William Co Il 2016-09-30 16,123 Sold Some -4,327 $ -223 $ 832
United Services Automobile Association 2016-09-30 237,303 Sold Some -4,547 $ -234 $ 12,254
Chartwell Investment Partners Llc 2016-09-30 23,975 Sold Some -4,600 $ -237 $ 1,238
Affinity Investment Advisors Llc 2016-09-30 4,070 Sold Some -4,660 $ -240 $ 210
Princeton Alpha Management Lp 2016-09-30 9,703 Sold Some -4,679 $ -241 $ 501
Swiss National Bank 2016-09-30 132,500 Sold Some -4,700 $ -242 $ 6,842
Donaldson Capital Management Llc 2016-09-30 54,047 Sold Some -5,090 $ -262 $ 2,790
Blackrock Inc 2016-09-30 151,822 Sold Some -5,263 $ -271 $ 7,840
Chicago Equity Partners Llc 2016-09-30 5,985 Sold Some -5,380 $ -277 $ 309
Sciencast Management Lp 2016-09-30 0 Sold All -5,605 $ -289 $ 0
Arvest Bank Trust Division 2016-09-30 0 Sold All -5,643 $ -291 $ 0
Profund Advisors Llc 2016-09-30 18,350 Sold Some -6,295 $ -325 $ 947
Tlp Group Llc 2016-09-30 0 Sold All -6,505 $ -335 $ 0
Cantab Capital Partners Llp 2016-09-30 11,639 Sold Some -6,535 $ -337 $ 601
Virtu Financial Llc 2016-09-30 0 Sold All -6,557 $ -338 $ 0
Quantbot Technologies Lp 2016-09-30 0 Sold All -6,660 $ -343 $ 0
First Citizens Bank Trust Co 2016-09-30 0 Sold All -6,757 $ -348 $ 0
Oregon Public Employees Retirement Fund 2016-09-30 28,706 Sold Some -7,463 $ -385 $ 1,482
Parametrica Management Ltd 2016-09-30 0 Sold All -7,640 $ -394 $ 0
Trexquant Investment Lp 2016-09-30 0 Sold All -7,695 $ -397 $ 0
Shelton Capital Management 2016-09-30 0 Sold All -7,907 $ -408 $ 0
Stoneridge Investment Partners Llc 2016-09-30 0 Sold All -8,045 $ -415 $ 0
Marshall Wace Llp 2016-09-30 0 Sold All -8,646 $ -446 $ 0
First Financial Bank N A - Trust Division 2016-09-30 12,550 Sold Some -10,125 $ -522 $ 648
Baker Ellis Asset Management Llc 2016-09-30 21,683 Sold Some -10,590 $ -546 $ 1,119
Nationwide Fund Advisors 2016-09-30 182,114 Sold Some -10,842 $ -559 $ 9,404
Cubist Systematic Strategies Llc 2016-09-30 4,976 Sold Some -11,932 $ -616 $ 256
Westport Resources Management Inc 2016-09-30 4,995 Sold Some -12,358 $ -638 $ 257
Walleye Trading Llc 2016-09-30 0 Sold All -14,779 $ -763 $ 0
Quadrature Capital Ltd 2016-09-30 0 Sold All -15,435 $ -797 $ 0
Gsa Capital Partners Llp 2016-09-30 0 Sold All -15,650 $ -808 $ 0
New York State Common Retirement Fund 2016-09-30 179,700 Sold Some -18,500 $ -955 $ 9,279
Zurcher Kantonalbank Zurich Cantonalbank 2016-09-30 2,662 Sold Some -18,889 $ -975 $ 137
Foster Motley Inc 2016-09-30 28,691 Sold Some -32,318 $ -1,668 $ 1,481
Dynamic Technology Lab Private Ltd 2016-09-30 0 Sold All -34,276 $ -1,770 $ 0
Ngam Advisors L P 2016-09-30 104,023 Sold Some -36,043 $ -1,861 $ 5,371
Robeco Institutional Asset Management B V 2016-09-30 330,153 Sold Some -36,824 $ -1,901 $ 17,049
Teachers Advisors Inc 2016-09-30 87,145 Sold Some -41,427 $ -2,139 $ 4,500
Cornerstone Capital Management Holdings Llc 2016-09-30 34,150 Sold Some -42,456 $ -2,192 $ 1,763
Highbridge Capital Management Llc 2016-09-30 118,176 Sold Some -42,801 $ -2,210 $ 6,102
Emerald Acquisition Ltd 2016-09-30 39,576 Sold Some -48,143 $ -2,486 $ 2,043
Kennedy Capital Management Inc 2016-09-30 49,511 Sold Some -50,913 $ -2,629 $ 2,556
Northern Trust Corp 2016-09-30 1,063,419 Sold Some -51,522 $ -2,660 $ 54,914
Dalton Greiner Hartman Maher Co 2016-09-30 259,617 Sold Some -73,636 $ -3,802 $ 13,406
Sg Americas Securities Llc 2016-09-30 10,075 Sold Some -78,730 $ -4,065 $ 520
Ahl Partners Llp 2016-09-30 31,588 Sold Some -158,821 $ -8,201 $ 1,631
River Road Asset Management Llc 2016-09-30 873,882 Sold Some -224,107 $ -11,572 $ 45,127
Denver Investment Advisors Llc 2016-09-30 0 Sold All -232,741 $ -12,018 $ 0
Vaughan Nelson Investment Management L P 2016-09-30 1,065,050 Sold Some -317,325 $ -16,386 $ 54,999